Startpagina
METAR-TAF:

METAR-TAF

Vliegvelden :

Port of Spain, Trinidad, Trinidad en Tobago

breedte: 10-37N, lengte: 061-21W, hoogte: 12 m

Actueel weer

Dit bericht is 29 minuten geleden gemaakt, om 12:00 UTC
Wind 14 kt uit het oosten
Temperatuur 29°C
Vochtigheid 74%
Druk 1015 hPa
Zicht 10 km of meer
Weinig wolken op 2000 ft

METAR: TTPP 251200Z 09014KT 9999 FEW020 29/24 Q1015 NOSIG

Tijdstip: 08:29 (12:29 UTC)

Verwachting

Dit bericht is 2 uur en het 29 minuten geleden gemaakt, om 10:00 UTC
Verwachting geldig van 25 om 12 UTC tot 26 om 12 UTC
Wind 15 kt uit het oosten
Zicht 10 km of meer
Verspreide wolken op 2000 ft
Wijzigt naar
van 25 om 23 UTC tot 26 om 01 UTC
Wind 5 kt uit het oosten

TAF: TTPP 251000Z 2512/2612 10015KT 9999 SCT020 BECMG 2523/2601 10005KT

Waarnemingen en weersverwachtingen van meer dan 4000 vliegvelden (METAR en TAF).

De beschikbare stations zijn de gele en rode punten op de kaart.

Ga met uw muis naar het station om de naam te zien.

Klik dan om waarnemingen en weersverwachtingen te zien.

kaart wijzigen: klik op de groene knoppen met een zwart kruis om in te zoomen, op de groene knop met een streepje om uit te zoomen of op de groene pijlen voor aangrenzende kaarten.


METAR-TAF: